createdAt,value
2023-04-26T00:00:03.266Z,1.08
2023-04-26T00:02:34.412Z,1.15
2023-04-26T00:05:04.094Z,1.00
2023-04-26T00:07:32.150Z,1.00
2023-04-26T00:10:00.031Z,0.98
2023-04-26T00:12:27.861Z,1.35
2023-04-26T00:14:55.571Z,0.90
2023-04-26T00:17:25.902Z,1.00
2023-04-26T00:19:53.660Z,0.90
2023-04-26T00:22:21.377Z,1.00
2023-04-26T00:24:49.521Z,1.05
2023-04-26T00:27:17.454Z,0.95
2023-04-26T00:29:45.303Z,1.25
2023-04-26T00:32:13.352Z,0.90
2023-04-26T00:34:42.528Z,1.20
2023-04-26T00:37:10.609Z,1.65
2023-04-26T00:39:38.633Z,1.00
2023-04-26T00:42:06.555Z,0.90
2023-04-26T00:44:34.444Z,0.87
2023-04-26T00:47:02.634Z,1.15
2023-04-26T00:49:31.157Z,1.17
2023-04-26T00:52:00.921Z,0.88
2023-04-26T00:54:29.773Z,0.80
2023-04-26T00:56:58.006Z,1.00
2023-04-26T00:59:27.538Z,1.00
2023-04-26T01:01:55.242Z,1.00
2023-04-26T01:04:26.204Z,0.90
2023-04-26T01:06:54.869Z,1.40
2023-04-26T01:09:24.058Z,1.30
2023-04-26T01:11:53.620Z,0.80
2023-04-26T01:14:21.951Z,1.00
2023-04-26T01:16:50.846Z,0.90
2023-04-26T01:19:18.868Z,1.10
2023-04-26T01:21:46.722Z,1.20
2023-04-26T01:24:16.656Z,1.02
2023-04-26T01:26:45.708Z,0.95
2023-04-26T01:29:16.553Z,1.13
2023-04-26T01:31:44.585Z,0.90
2023-04-26T01:34:12.394Z,0.70
2023-04-26T01:36:40.191Z,1.00
2023-04-26T01:39:09.204Z,1.13
2023-04-26T01:41:38.509Z,1.00
2023-04-26T01:44:06.753Z,1.00
2023-04-26T01:46:34.659Z,1.10
2023-04-26T01:49:02.592Z,0.98
2023-04-26T01:51:31.290Z,0.90
2023-04-26T01:53:59.213Z,1.15
2023-04-26T01:56:26.985Z,1.15
2023-04-26T01:58:57.461Z,1.03
2023-04-26T02:01:25.574Z,1.20
2023-04-26T02:03:53.411Z,1.27
2023-04-26T02:06:21.422Z,1.33
2023-04-26T02:08:49.631Z,1.45
2023-04-26T02:11:17.587Z,1.27
2023-04-26T02:13:45.431Z,1.10
2023-04-26T02:16:16.182Z,1.05
2023-04-26T02:18:44.437Z,0.93
2023-04-26T02:21:13.205Z,1.30
2023-04-26T02:23:41.138Z,1.30
2023-04-26T02:26:11.703Z,1.20
2023-04-26T02:28:39.874Z,1.48
2023-04-26T02:31:07.946Z,1.10
2023-04-26T02:33:37.177Z,1.10
2023-04-26T02:36:06.428Z,0.80
2023-04-26T02:38:39.085Z,1.33
2023-04-26T02:41:06.886Z,1.52
2023-04-26T02:43:34.758Z,1.08
2023-04-26T02:46:02.744Z,1.25
2023-04-26T02:48:32.087Z,1.20
2023-04-26T02:51:01.210Z,1.33
2023-04-26T02:53:29.118Z,1.00
2023-04-26T02:55:57.215Z,1.20
2023-04-26T02:58:25.056Z,1.23
2023-04-26T03:00:54.712Z,1.60
2023-04-26T03:03:23.091Z,1.30
2023-04-26T03:05:51.491Z,1.40
2023-04-26T03:08:20.918Z,1.00
2023-04-26T03:10:49.174Z,1.30
2023-04-26T03:13:17.299Z,1.30
2023-04-26T03:15:46.968Z,1.30
2023-04-26T03:18:14.791Z,1.10
2023-04-26T03:20:43.528Z,1.27
2023-04-26T03:23:11.490Z,1.50
2023-04-26T03:25:40.984Z,1.20
2023-04-26T03:28:09.347Z,1.20
2023-04-26T03:30:37.486Z,1.08
2023-04-26T03:33:06.973Z,0.90
2023-04-26T03:35:35.080Z,1.10
2023-04-26T03:38:03.192Z,1.17
2023-04-26T03:40:30.986Z,1.23
2023-04-26T03:43:00.721Z,2.08
2023-04-26T03:45:28.542Z,1.00
2023-04-26T03:47:56.896Z,1.00
2023-04-26T03:50:25.016Z,1.00
2023-04-26T03:52:53.998Z,1.67
2023-04-26T03:55:21.968Z,1.00
2023-04-26T03:57:50.115Z,0.90
2023-04-26T04:00:19.582Z,1.20
2023-04-26T04:02:49.368Z,1.20
2023-04-26T04:05:24.574Z,1.40
2023-04-26T04:07:53.177Z,1.08
2023-04-26T04:10:23.164Z,1.10
2023-04-26T04:12:51.450Z,1.02
2023-04-26T04:15:21.135Z,1.00
2023-04-26T04:17:50.249Z,1.20
2023-04-26T04:20:18.251Z,1.10
2023-04-26T04:22:46.227Z,1.00
2023-04-26T04:25:14.616Z,1.20
2023-04-26T04:27:43.815Z,1.20
2023-04-26T04:30:12.971Z,0.80
2023-04-26T04:32:45.050Z,0.90
2023-04-26T04:35:14.526Z,1.00
2023-04-26T04:37:43.951Z,0.95
2023-04-26T04:40:13.429Z,1.00
2023-04-26T04:42:46.425Z,0.73
2023-04-26T04:45:15.916Z,0.90
2023-04-26T04:47:46.585Z,0.95
2023-04-26T04:50:14.568Z,1.00
2023-04-26T04:52:43.912Z,0.80
2023-04-26T04:55:12.656Z,0.82
2023-04-26T04:57:43.068Z,0.70
2023-04-26T05:00:13.677Z,0.77
2023-04-26T05:02:48.224Z,0.90
2023-04-26T05:05:17.374Z,0.97
2023-04-26T05:07:45.598Z,0.73
2023-04-26T05:10:14.567Z,1.02
2023-04-26T05:12:42.545Z,1.10
2023-04-26T05:15:11.104Z,1.60
2023-04-26T05:17:39.052Z,1.50
2023-04-26T05:20:23.767Z,1.30
2023-04-26T05:22:52.122Z,1.40
2023-04-26T05:25:22.302Z,1.60
2023-04-26T05:27:54.233Z,1.40
2023-04-26T05:30:51.569Z,1.33
2023-04-26T05:33:25.557Z,1.35
2023-04-26T05:36:01.503Z,1.40
2023-04-26T05:38:30.551Z,1.40
2023-04-26T05:40:58.593Z,1.83
2023-04-26T05:43:26.528Z,1.57
2023-04-26T05:45:55.289Z,1.80
2023-04-26T05:48:25.034Z,2.25
2023-04-26T05:50:53.526Z,1.67
2023-04-26T05:53:22.876Z,1.65
2023-04-26T05:55:50.812Z,1.30
2023-04-26T05:58:18.640Z,1.38
2023-04-26T06:00:47.884Z,1.25
2023-04-26T06:03:16.122Z,1.30
2023-04-26T06:05:44.258Z,1.30
2023-04-26T06:08:12.788Z,1.70
2023-04-26T06:10:42.296Z,1.40
2023-04-26T06:13:10.153Z,1.60
2023-04-26T06:15:38.683Z,1.30
2023-04-26T06:18:07.205Z,1.30
2023-04-26T06:20:35.016Z,1.40
2023-04-26T06:23:03.877Z,1.98
2023-04-26T06:25:31.974Z,1.52
2023-04-26T06:28:01.469Z,2.08
2023-04-26T06:30:29.290Z,1.50
2023-04-26T06:32:58.974Z,1.67
2023-04-26T06:35:27.166Z,1.40
2023-04-26T06:37:55.140Z,1.75
2023-04-26T06:40:23.347Z,1.20
2023-04-26T06:42:52.096Z,1.27
2023-04-26T06:45:46.509Z,1.20
2023-04-26T06:48:14.407Z,1.50
2023-04-26T06:50:42.311Z,1.15
2023-04-26T06:53:10.183Z,1.30
2023-04-26T06:55:38.121Z,1.25
2023-04-26T06:58:06.216Z,0.90
2023-04-26T07:00:34.216Z,1.20
2023-04-26T07:03:03.706Z,0.90
2023-04-26T07:05:31.665Z,1.17
2023-04-26T07:07:59.619Z,0.90
2023-04-26T07:10:27.882Z,1.00
2023-04-26T07:12:55.852Z,1.10
2023-04-26T07:15:23.834Z,1.35
2023-04-26T07:17:51.749Z,0.98
2023-04-26T07:20:22.969Z,1.00
2023-04-26T07:22:51.052Z,1.00
2023-04-26T07:25:19.018Z,0.80
2023-04-26T07:27:47.003Z,1.30
2023-04-26T07:30:14.930Z,0.90
2023-04-26T07:32:42.984Z,0.77
2023-04-26T07:35:16.340Z,0.90
2023-04-26T07:37:45.924Z,1.13
2023-04-26T07:40:15.167Z,1.00
2023-04-26T07:42:42.963Z,0.90
2023-04-26T07:45:12.123Z,1.00
2023-04-26T07:47:39.954Z,1.00
2023-04-26T07:50:09.541Z,0.90
2023-04-26T07:52:37.385Z,1.33
2023-04-26T07:55:07.800Z,1.00
2023-04-26T07:57:35.656Z,0.80
2023-04-26T08:00:03.965Z,0.80
2023-04-26T08:02:50.433Z,0.90
2023-04-26T08:05:19.006Z,0.80
2023-04-26T08:07:47.086Z,0.73
2023-04-26T08:10:16.381Z,0.98
2023-04-26T08:12:44.254Z,0.93
2023-04-26T08:15:13.653Z,0.82
2023-04-26T08:17:41.705Z,0.80
2023-04-26T08:20:10.790Z,0.80
2023-04-26T08:22:38.578Z,1.27
2023-04-26T08:25:07.233Z,0.93
2023-04-26T08:27:36.942Z,0.75
2023-04-26T08:30:05.348Z,0.88
2023-04-26T08:32:33.941Z,0.60
2023-04-26T08:35:02.109Z,0.90
2023-04-26T08:37:30.125Z,1.23
2023-04-26T08:39:58.373Z,0.90
2023-04-26T08:42:28.371Z,0.90
2023-04-26T08:45:02.499Z,0.90
2023-04-26T08:47:36.499Z,0.80
2023-04-26T08:50:06.693Z,0.97
2023-04-26T08:52:36.352Z,1.08
2023-04-26T08:55:06.243Z,0.90
2023-04-26T08:57:34.394Z,0.90
2023-04-26T09:00:07.392Z,0.90
2023-04-26T09:02:35.927Z,0.90
2023-04-26T09:05:04.758Z,0.80
2023-04-26T09:07:36.711Z,0.70
2023-04-26T09:10:06.750Z,0.75
2023-04-26T09:12:34.779Z,0.82
2023-04-26T09:15:05.101Z,0.77
2023-04-26T09:17:34.996Z,1.52
2023-04-26T09:20:07.901Z,0.80
2023-04-26T09:22:38.819Z,0.80
2023-04-26T09:25:08.031Z,1.00
2023-04-26T09:27:38.745Z,0.90
2023-04-26T09:30:10.937Z,1.00
2023-04-26T09:32:49.507Z,0.80
2023-04-26T09:35:23.475Z,0.90
2023-04-26T09:37:59.604Z,0.90
2023-04-26T09:40:30.952Z,0.83
2023-04-26T09:43:01.017Z,0.77
2023-04-26T09:45:31.987Z,0.82
2023-04-26T09:48:26.030Z,1.02
2023-04-26T09:50:55.854Z,0.85
2023-04-26T09:53:31.647Z,0.80
2023-04-26T09:56:08.029Z,0.80
2023-04-26T09:58:36.296Z,0.90
2023-04-26T10:01:06.877Z,1.20
2023-04-26T10:03:36.071Z,0.70
2023-04-26T10:06:04.845Z,0.80
2023-04-26T10:08:32.884Z,1.08
2023-04-26T10:11:02.612Z,0.80
2023-04-26T10:13:32.539Z,0.90
2023-04-26T10:16:01.976Z,0.85
2023-04-26T10:18:32.687Z,0.83
2023-04-26T10:21:05.906Z,1.10
2023-04-26T10:23:36.438Z,1.20
2023-04-26T10:26:04.480Z,0.80
2023-04-26T10:29:02.998Z,0.90
2023-04-26T10:32:11.756Z,0.80
2023-04-26T10:34:41.641Z,0.90
2023-04-26T10:37:11.378Z,0.93
2023-04-26T10:39:39.573Z,0.80
2023-04-26T10:42:25.612Z,0.65
2023-04-26T10:44:55.085Z,1.00
2023-04-26T10:47:29.663Z,0.73
2023-04-26T10:50:07.267Z,0.80
2023-04-26T10:52:36.105Z,0.65
2023-04-26T10:55:05.243Z,0.90
2023-04-26T10:57:50.706Z,0.70
2023-04-26T11:00:32.115Z,0.70
2023-04-26T11:03:05.051Z,0.90
2023-04-26T11:05:55.929Z,1.05
2023-04-26T11:08:28.686Z,0.90
2023-04-26T11:11:08.846Z,0.70
2023-04-26T11:13:37.830Z,0.80
2023-04-26T11:16:07.294Z,0.70
2023-04-26T11:18:36.496Z,0.90
2023-04-26T11:21:06.418Z,1.00
2023-04-26T11:23:35.687Z,0.93
2023-04-26T11:26:04.911Z,0.90
2023-04-26T11:28:34.434Z,0.90
2023-04-26T11:31:04.145Z,0.80
2023-04-26T11:33:34.175Z,1.13
2023-04-26T11:36:02.176Z,0.70
2023-04-26T11:38:31.448Z,0.77
2023-04-26T11:41:00.666Z,0.95
2023-04-26T11:43:35.360Z,0.70
2023-04-26T11:46:04.680Z,1.10
2023-04-26T11:48:33.942Z,0.80
2023-04-26T11:51:04.990Z,0.80
2023-04-26T11:53:38.736Z,0.82
2023-04-26T11:56:14.369Z,0.80
2023-04-26T11:58:45.713Z,1.10
2023-04-26T12:01:13.681Z,0.80
2023-04-26T12:03:41.600Z,1.10
2023-04-26T12:06:09.422Z,1.33
2023-04-26T12:08:38.790Z,1.05
2023-04-26T12:11:06.652Z,0.90
2023-04-26T12:13:34.526Z,0.73
2023-04-26T12:16:22.272Z,1.23
2023-04-26T12:18:54.650Z,1.00
2023-04-26T12:21:22.757Z,0.90
2023-04-26T12:23:52.140Z,1.10
2023-04-26T12:26:20.529Z,1.00
2023-04-26T12:28:48.666Z,1.20
2023-04-26T12:31:16.576Z,1.00
2023-04-26T12:33:44.457Z,1.25
2023-04-26T12:36:13.906Z,0.90
2023-04-26T12:38:41.770Z,1.00
2023-04-26T12:41:11.304Z,1.10
2023-04-26T12:43:39.180Z,0.80
2023-04-26T12:46:07.167Z,1.00
2023-04-26T12:48:35.039Z,1.00
2023-04-26T12:51:03.208Z,1.00
2023-04-26T12:53:32.179Z,1.02
2023-04-26T12:56:00.042Z,1.00
2023-04-26T12:58:29.800Z,1.52
2023-04-26T13:00:58.030Z,0.90
2023-04-26T13:03:26.465Z,1.00
2023-04-26T13:05:54.422Z,1.33
2023-04-26T13:08:22.740Z,0.93
2023-04-26T13:10:51.231Z,1.08
2023-04-26T13:13:21.993Z,1.10
2023-04-26T13:15:53.461Z,0.80
2023-04-26T13:18:22.099Z,0.95
2023-04-26T13:20:50.053Z,0.80
2023-04-26T13:23:18.112Z,0.85
2023-04-26T13:25:46.071Z,1.30
2023-04-26T13:28:14.131Z,0.80
2023-04-26T13:30:42.293Z,1.00
2023-04-26T13:33:11.939Z,1.20
2023-04-26T13:35:39.766Z,1.05
2023-04-26T13:38:07.641Z,1.10
2023-04-26T13:40:35.462Z,1.00
2023-04-26T13:43:03.265Z,0.93
2023-04-26T13:45:31.079Z,1.10
2023-04-26T13:47:58.986Z,1.00
2023-04-26T13:50:28.249Z,1.00
2023-04-26T13:52:56.701Z,1.00
2023-04-26T13:55:25.590Z,1.00
2023-04-26T13:57:53.544Z,1.30
2023-04-26T14:00:22.707Z,1.00
2023-04-26T14:02:51.014Z,0.98
2023-04-26T14:05:19.162Z,1.00
2023-04-26T14:07:48.460Z,1.13
2023-04-26T14:10:16.370Z,1.17
2023-04-26T14:12:44.274Z,1.17
2023-04-26T14:15:13.830Z,0.98
2023-04-26T14:17:41.585Z,0.90
2023-04-26T14:20:11.153Z,1.00
2023-04-26T14:22:39.270Z,1.20
2023-04-26T14:25:09.818Z,0.90
2023-04-26T14:27:39.520Z,0.88
2023-04-26T14:30:08.727Z,0.97
2023-04-26T14:32:36.851Z,0.93
2023-04-26T14:35:05.348Z,0.90
2023-04-26T14:37:33.362Z,1.17
2023-04-26T14:40:01.399Z,1.10
2023-04-26T14:42:30.620Z,1.10
2023-04-26T14:44:59.814Z,1.10
2023-04-26T14:47:29.250Z,1.17
2023-04-26T14:49:58.183Z,0.88
2023-04-26T14:52:27.966Z,1.17
2023-04-26T14:54:55.898Z,1.30
2023-04-26T14:57:24.704Z,1.00
2023-04-26T14:59:53.953Z,1.48
2023-04-26T15:02:22.298Z,1.13
2023-04-26T15:04:50.558Z,1.10
2023-04-26T15:07:31.352Z,1.10
2023-04-26T15:10:00.649Z,1.17
2023-04-26T15:12:28.536Z,1.52
2023-04-26T15:14:57.752Z,1.17
2023-04-26T15:17:25.579Z,1.15
2023-04-26T15:19:53.355Z,1.50
2023-04-26T15:22:21.334Z,1.65
2023-04-26T15:24:51.171Z,1.45
2023-04-26T15:27:19.421Z,1.05
2023-04-26T15:29:47.280Z,1.25
2023-04-26T15:32:16.496Z,1.00
2023-04-26T15:34:45.131Z,1.00
2023-04-26T15:37:13.088Z,1.20
2023-04-26T15:39:41.400Z,1.30
2023-04-26T15:42:09.312Z,1.10
2023-04-26T15:44:37.162Z,0.90
2023-04-26T15:47:05.163Z,1.27
2023-04-26T15:49:34.524Z,1.10
2023-04-26T15:52:02.323Z,1.38
2023-04-26T15:54:30.216Z,1.30
2023-04-26T15:56:58.230Z,1.00
2023-04-26T15:59:26.411Z,0.90
2023-04-26T16:01:54.384Z,1.20
2023-04-26T16:04:22.584Z,0.80
2023-04-26T16:06:52.128Z,1.05
2023-04-26T16:11:50.986Z,1.13
2023-04-26T16:14:18.883Z,1.40
2023-04-26T16:16:46.786Z,1.23
2023-04-26T16:19:16.257Z,1.05
2023-04-26T16:21:44.305Z,1.30
2023-04-26T16:24:13.477Z,0.95
2023-04-26T16:26:41.343Z,0.98
2023-04-26T16:29:09.745Z,1.10
2023-04-26T16:31:37.801Z,1.30
2023-04-26T16:34:05.836Z,0.90
2023-04-26T16:36:33.869Z,0.85
2023-04-26T16:39:01.860Z,0.95
2023-04-26T16:41:34.451Z,1.00
2023-04-26T16:44:02.360Z,1.20
2023-04-26T16:46:30.467Z,1.10
2023-04-26T16:48:58.487Z,0.90
2023-04-26T16:51:27.974Z,1.20
2023-04-26T16:53:56.167Z,0.95
2023-04-26T16:56:24.042Z,1.15
2023-04-26T16:58:53.276Z,1.10
2023-04-26T17:01:21.914Z,1.15
2023-04-26T17:03:50.026Z,1.10
2023-04-26T17:06:18.089Z,0.90
2023-04-26T17:08:45.978Z,1.17
2023-04-26T17:11:15.204Z,1.20
2023-04-26T17:13:43.299Z,0.82
2023-04-26T17:16:12.809Z,1.10
2023-04-26T17:18:41.809Z,1.05
2023-04-26T17:21:10.083Z,1.13
2023-04-26T17:23:38.210Z,1.00
2023-04-26T17:26:06.474Z,1.00
2023-04-26T17:28:34.568Z,1.00
2023-04-26T17:31:02.544Z,1.40
2023-04-26T17:33:31.909Z,1.23
2023-04-26T17:36:00.143Z,1.10
2023-04-26T17:38:27.861Z,1.10
2023-04-26T17:40:55.842Z,1.30
2023-04-26T17:43:23.908Z,0.90
2023-04-26T17:45:51.795Z,1.00
2023-04-26T17:48:19.646Z,1.00
2023-04-26T17:50:49.105Z,1.10
2023-04-26T17:53:17.223Z,1.10
2023-04-26T17:55:45.534Z,1.25
2023-04-26T17:58:13.358Z,1.10
2023-04-26T18:00:41.162Z,0.90
2023-04-26T18:03:09.266Z,1.77
2023-04-26T18:05:37.249Z,1.10
2023-04-26T18:08:06.761Z,1.15
2023-04-26T18:10:34.613Z,1.17
2023-04-26T18:13:02.772Z,1.13
2023-04-26T18:15:30.669Z,0.98
2023-04-26T18:17:58.741Z,1.10
2023-04-26T18:20:27.125Z,1.15
2023-04-26T18:22:55.176Z,1.00
2023-04-26T18:25:24.296Z,1.30
2023-04-26T18:27:52.207Z,1.10
2023-04-26T18:30:20.328Z,0.93
2023-04-26T18:32:48.421Z,0.98
2023-04-26T18:35:16.664Z,1.10
2023-04-26T18:37:44.448Z,1.10
2023-04-26T18:40:13.322Z,1.00
2023-04-26T18:42:44.826Z,1.17
2023-04-26T18:45:13.740Z,1.35
2023-04-26T18:47:41.774Z,1.35
2023-04-26T18:50:10.288Z,1.40
2023-04-26T18:52:39.672Z,1.45
2023-04-26T18:55:08.231Z,1.40
2023-04-26T18:57:36.194Z,1.15
2023-04-26T19:00:07.919Z,1.42
2023-04-26T19:02:38.225Z,1.80
2023-04-26T19:05:07.457Z,1.45
2023-04-26T19:07:35.324Z,1.35
2023-04-26T19:10:04.245Z,1.42
2023-04-26T19:12:32.021Z,1.55
2023-04-26T19:14:59.760Z,1.40
2023-04-26T19:17:29.422Z,1.52
2023-04-26T19:19:58.181Z,1.80
2023-04-26T19:22:25.969Z,1.77
2023-04-26T19:24:53.917Z,1.77
2023-04-26T19:27:21.860Z,1.50
2023-04-26T19:29:49.623Z,1.67
2023-04-26T19:32:19.615Z,2.08
2023-04-26T19:34:48.812Z,1.80
2023-04-26T19:37:16.622Z,1.83
2023-04-26T19:39:44.518Z,1.67
2023-04-26T19:42:12.525Z,1.70
2023-04-26T19:44:40.482Z,1.95
2023-04-26T19:47:08.689Z,1.70
2023-04-26T19:49:36.834Z,1.90
2023-04-26T19:52:05.972Z,2.00
2023-04-26T19:54:33.807Z,2.05
2023-04-26T19:57:03.315Z,1.85
2023-04-26T19:59:31.391Z,2.03
2023-04-26T20:01:59.296Z,1.95
2023-04-26T20:04:27.189Z,2.07
2023-04-26T20:06:55.037Z,1.98
2023-04-26T20:09:24.192Z,1.90
2023-04-26T20:11:52.839Z,2.05
2023-04-26T20:14:20.723Z,1.98
2023-04-26T20:16:48.672Z,1.97
2023-04-26T20:19:16.526Z,2.00
2023-04-26T20:21:44.361Z,2.08
2023-04-26T20:24:12.194Z,2.03
2023-04-26T20:26:41.386Z,1.90
2023-04-26T20:29:09.411Z,1.80
2023-04-26T20:31:37.524Z,2.00
2023-04-26T20:34:05.470Z,2.15
2023-04-26T20:36:33.589Z,2.53
2023-04-26T20:39:01.469Z,1.98
2023-04-26T20:41:29.319Z,2.20
2023-04-26T20:43:58.515Z,2.30
2023-04-26T20:46:27.108Z,2.33
2023-04-26T20:48:55.125Z,1.98
2023-04-26T20:51:23.021Z,2.10
2023-04-26T20:53:51.021Z,2.20
2023-04-26T20:56:19.152Z,2.08
2023-04-26T20:58:47.208Z,2.60
2023-04-26T21:01:16.457Z,2.55
2023-04-26T21:03:44.809Z,2.40
2023-04-26T21:06:12.758Z,2.00
2023-04-26T21:08:41.050Z,2.20
2023-04-26T21:11:08.888Z,2.28
2023-04-26T21:13:36.698Z,2.10
2023-04-26T21:16:04.892Z,2.53
2023-04-26T21:18:34.176Z,2.50
2023-04-26T21:21:02.118Z,2.35
2023-04-26T21:23:29.872Z,2.10
2023-04-26T21:25:57.751Z,2.30
2023-04-26T21:28:25.611Z,2.35
2023-04-26T21:31:04.393Z,2.83
2023-04-26T21:33:34.640Z,2.40
2023-04-26T21:36:02.699Z,2.45
2023-04-26T21:38:30.465Z,2.42
2023-04-26T21:40:58.348Z,2.60
2023-04-26T21:43:26.273Z,2.90
2023-04-26T21:45:58.058Z,2.70
2023-04-26T21:48:26.916Z,2.55
2023-04-26T21:50:56.166Z,2.50
2023-04-26T21:53:23.994Z,2.75
2023-04-26T21:55:52.679Z,2.60
2023-04-26T21:58:20.714Z,2.78
2023-04-26T22:00:48.787Z,2.85
2023-04-26T22:03:17.158Z,3.20
2023-04-26T22:06:06.219Z,2.78
2023-04-26T22:08:34.703Z,2.73
2023-04-26T22:11:02.958Z,3.03
2023-04-26T22:13:32.322Z,3.10
2023-04-26T22:16:00.356Z,2.85
2023-04-26T22:18:29.348Z,3.20
2023-04-26T22:20:57.392Z,3.00
2023-04-26T22:23:26.829Z,3.20
2023-04-26T22:25:54.674Z,3.72
2023-04-26T22:28:22.574Z,3.63
2023-04-26T22:30:50.319Z,3.53
2023-04-26T22:33:18.130Z,3.10
2023-04-26T22:35:45.921Z,3.60
2023-04-26T22:38:13.637Z,2.90
2023-04-26T22:40:43.278Z,3.15
2023-04-26T22:43:11.040Z,3.38
2023-04-26T22:45:38.755Z,3.10
2023-04-26T22:48:06.597Z,3.10
2023-04-26T22:50:34.360Z,3.22
2023-04-26T22:53:02.134Z,2.80
2023-04-26T22:55:30.886Z,2.70
2023-04-26T22:58:00.075Z,3.10
2023-04-26T23:00:27.938Z,3.00
2023-04-26T23:02:55.890Z,3.10
2023-04-26T23:05:24.803Z,3.08
2023-04-26T23:07:52.682Z,2.47
2023-04-26T23:10:20.452Z,3.60
2023-04-26T23:12:50.170Z,3.55
2023-04-26T23:15:19.671Z,3.28
2023-04-26T23:17:47.620Z,3.25
2023-04-26T23:20:15.891Z,3.08
2023-04-26T23:22:44.234Z,3.50
2023-04-26T23:25:12.209Z,2.97
2023-04-26T23:27:40.291Z,3.10
2023-04-26T23:30:09.219Z,3.13
2023-04-26T23:32:38.479Z,3.53
2023-04-26T23:35:07.595Z,3.67
2023-04-26T23:37:35.525Z,3.42
2023-04-26T23:40:04.766Z,3.42
2023-04-26T23:42:32.634Z,3.55
2023-04-26T23:45:00.662Z,3.20
2023-04-26T23:47:30.009Z,3.33
2023-04-26T23:49:59.496Z,3.47
2023-04-26T23:52:27.657Z,3.60
2023-04-26T23:54:55.584Z,3.28
2023-04-26T23:57:23.391Z,3.33
2023-04-26T23:59:52.685Z,3.30
